createdAt,value
2023-05-21T00:01:32.566Z,13.39
2023-05-21T00:04:00.508Z,13.42
2023-05-21T00:06:28.703Z,13.45
2023-05-21T00:08:56.823Z,13.46
2023-05-21T00:11:24.749Z,13.44
2023-05-21T00:13:52.622Z,13.41
2023-05-21T00:16:20.598Z,13.37
2023-05-21T00:18:54.480Z,13.34
2023-05-21T00:21:22.893Z,13.30
2023-05-21T00:23:50.791Z,13.30
2023-05-21T00:26:18.775Z,13.29
2023-05-21T00:28:46.652Z,13.26
2023-05-21T00:31:14.489Z,13.21
2023-05-21T00:33:42.288Z,13.15
2023-05-21T00:36:14.296Z,13.09
2023-05-21T00:38:44.137Z,13.03
2023-05-21T00:41:12.630Z,12.97
2023-05-21T00:43:42.098Z,12.89
2023-05-21T00:46:19.601Z,12.80
2023-05-21T00:48:49.472Z,12.73
2023-05-21T00:51:18.736Z,12.64
2023-05-21T00:53:51.553Z,12.57
2023-05-21T00:56:22.761Z,12.49
2023-05-21T00:58:54.785Z,12.43
2023-05-21T01:01:25.878Z,12.38
2023-05-21T01:03:57.639Z,12.33
2023-05-21T01:06:25.576Z,12.27
2023-05-21T01:08:53.400Z,12.23
2023-05-21T01:11:22.058Z,12.20
2023-05-21T01:13:50.794Z,12.17
2023-05-21T01:16:18.911Z,12.14
2023-05-21T01:18:47.887Z,12.12
2023-05-21T01:21:17.547Z,12.12
2023-05-21T01:23:46.028Z,12.12
2023-05-21T01:26:13.956Z,12.13
2023-05-21T01:28:42.231Z,12.14
2023-05-21T01:31:30.495Z,12.15
2023-05-21T01:34:05.702Z,12.15
2023-05-21T01:36:42.200Z,12.13
2023-05-21T01:39:21.361Z,12.12
2023-05-21T01:41:51.526Z,12.10
2023-05-21T01:44:20.105Z,12.08
2023-05-21T01:46:49.617Z,12.06
2023-05-21T01:49:18.032Z,12.05
2023-05-21T01:51:46.237Z,12.05
2023-05-21T01:54:14.596Z,12.03
2023-05-21T01:56:42.415Z,12.03
2023-05-21T01:59:11.794Z,12.03
2023-05-21T02:01:39.822Z,12.05
2023-05-21T02:04:07.738Z,12.06
2023-05-21T02:06:36.877Z,12.07
2023-05-21T02:09:05.237Z,12.09
2023-05-21T02:11:33.179Z,12.08
2023-05-21T02:14:01.179Z,12.08
2023-05-21T02:16:29.136Z,12.06
2023-05-21T02:18:58.038Z,12.05
2023-05-21T02:21:26.033Z,12.06
2023-05-21T02:23:53.906Z,12.06
2023-05-21T02:26:22.794Z,12.06
2023-05-21T02:28:52.933Z,12.06
2023-05-21T02:31:21.105Z,12.04
2023-05-21T02:33:49.053Z,12.04
2023-05-21T02:36:19.142Z,12.05
2023-05-21T02:38:47.724Z,12.05
2023-05-21T02:41:15.509Z,12.04
2023-05-21T02:43:43.510Z,11.99
2023-05-21T02:46:11.432Z,11.95
2023-05-21T02:48:39.371Z,11.91
2023-05-21T02:51:07.325Z,11.87
2023-05-21T02:53:35.241Z,11.84
2023-05-21T02:56:03.182Z,11.84
2023-05-21T02:58:31.168Z,11.83
2023-05-21T03:00:59.129Z,11.83
2023-05-21T03:03:27.153Z,11.81
2023-05-21T03:05:55.102Z,11.78
2023-05-21T03:08:23.295Z,11.76
2023-05-21T03:10:51.226Z,11.76
2023-05-21T03:13:19.290Z,11.74
2023-05-21T03:15:47.220Z,11.73
2023-05-21T03:18:15.135Z,11.70
2023-05-21T03:20:45.949Z,11.66
2023-05-21T03:23:16.477Z,11.62
2023-05-21T03:25:46.194Z,11.61
2023-05-21T03:28:14.216Z,11.59
2023-05-21T03:30:46.604Z,11.59
2023-05-21T03:33:15.617Z,11.63
2023-05-21T03:35:43.634Z,11.69
2023-05-21T03:38:11.698Z,11.72
2023-05-21T03:40:39.516Z,11.69
2023-05-21T03:43:07.349Z,11.65
2023-05-21T03:45:35.430Z,11.59
2023-05-21T03:48:03.716Z,11.54
2023-05-21T03:50:31.664Z,11.54
2023-05-21T03:52:59.652Z,11.53
2023-05-21T03:55:27.493Z,11.55
2023-05-21T03:57:55.811Z,11.59
2023-05-21T04:00:23.753Z,11.62
2023-05-21T04:02:52.070Z,11.68
2023-05-21T04:05:20.378Z,11.74
2023-05-21T04:07:48.738Z,11.81
2023-05-21T04:10:16.752Z,11.90
2023-05-21T04:12:44.934Z,11.99
2023-05-21T04:15:12.773Z,12.06
2023-05-21T04:17:41.655Z,12.10
2023-05-21T04:20:09.734Z,12.15
2023-05-21T04:22:37.875Z,12.19
2023-05-21T04:25:06.498Z,12.23
2023-05-21T04:27:34.775Z,12.26
2023-05-21T04:30:04.316Z,12.29
2023-05-21T04:32:33.535Z,12.30
2023-05-21T04:35:02.081Z,12.32
2023-05-21T04:37:31.639Z,12.35
2023-05-21T04:40:01.550Z,12.38
2023-05-21T04:42:30.437Z,12.41
2023-05-21T04:44:59.595Z,12.43
2023-05-21T04:47:30.448Z,12.46
2023-05-21T04:49:59.519Z,12.50
2023-05-21T04:52:27.315Z,12.56
2023-05-21T04:54:55.148Z,12.64
2023-05-21T04:57:25.020Z,12.73
2023-05-21T04:59:52.884Z,12.82
2023-05-21T05:02:20.892Z,12.91
2023-05-21T05:04:48.771Z,13.02
2023-05-21T05:07:17.133Z,13.12
2023-05-21T05:09:44.923Z,13.23
2023-05-21T05:12:12.837Z,13.36
2023-05-21T05:14:40.730Z,13.47
2023-05-21T05:17:10.122Z,13.57
2023-05-21T05:19:38.095Z,13.69
2023-05-21T05:22:05.975Z,13.81
2023-05-21T05:24:33.917Z,13.91
2023-05-21T05:27:01.977Z,14.03
2023-05-21T05:29:29.879Z,14.15
2023-05-21T05:31:57.712Z,14.25
2023-05-21T05:34:25.701Z,14.35
2023-05-21T05:36:55.513Z,14.46
2023-05-21T05:39:23.530Z,14.58
2023-05-21T05:41:51.416Z,14.70
2023-05-21T05:44:19.617Z,14.81
2023-05-21T05:46:51.577Z,14.92
2023-05-21T05:49:20.870Z,15.02
2023-05-21T05:51:48.756Z,15.12
2023-05-21T05:54:16.728Z,15.21
2023-05-21T05:56:45.188Z,15.30
2023-05-21T05:59:13.449Z,15.39
2023-05-21T06:01:42.557Z,15.49
2023-05-21T06:04:10.540Z,15.57
2023-05-21T06:06:38.953Z,15.65
2023-05-21T06:09:06.793Z,15.73
2023-05-21T06:11:34.708Z,15.79
2023-05-21T06:14:02.606Z,15.87
2023-05-21T06:16:34.033Z,15.94
2023-05-21T06:19:02.469Z,15.99
2023-05-21T06:21:30.905Z,16.07
2023-05-21T06:23:59.720Z,16.15
2023-05-21T06:26:27.769Z,16.23
2023-05-21T06:28:57.455Z,16.30
2023-05-21T06:31:25.348Z,16.39
2023-05-21T06:33:53.494Z,16.51
2023-05-21T06:36:21.648Z,16.61
2023-05-21T06:38:49.625Z,16.72
2023-05-21T06:41:17.566Z,16.83
2023-05-21T06:43:45.563Z,16.93
2023-05-21T06:46:13.475Z,17.03
2023-05-21T06:48:41.917Z,17.14
2023-05-21T06:51:09.808Z,17.25
2023-05-21T06:53:37.876Z,17.37
2023-05-21T06:56:06.050Z,17.48
2023-05-21T06:58:33.961Z,17.57
2023-05-21T07:01:01.997Z,17.68
2023-05-21T07:03:30.098Z,17.78
2023-05-21T07:05:58.671Z,17.88
2023-05-21T07:08:26.555Z,17.99
2023-05-21T07:10:56.335Z,18.10
2023-05-21T07:13:24.212Z,18.22
2023-05-21T07:15:52.193Z,18.34
2023-05-21T07:18:20.133Z,18.48
2023-05-21T07:20:48.159Z,18.63
2023-05-21T07:23:16.205Z,18.78
2023-05-21T07:25:44.137Z,18.92
2023-05-21T07:28:12.013Z,19.07
2023-05-21T07:30:39.839Z,19.20
2023-05-21T07:33:08.050Z,19.33
2023-05-21T07:35:36.482Z,19.46
2023-05-21T07:38:05.006Z,19.59
2023-05-21T07:40:32.983Z,19.71
2023-05-21T07:43:01.002Z,19.84
2023-05-21T07:45:29.061Z,19.94
2023-05-21T07:47:57.175Z,20.06
2023-05-21T07:50:26.354Z,20.18
2023-05-21T07:52:54.318Z,20.31
2023-05-21T07:55:22.395Z,20.43
2023-05-21T07:57:52.386Z,20.54
2023-05-21T08:00:24.052Z,20.64
2023-05-21T08:02:52.650Z,20.78
2023-05-21T08:05:21.698Z,20.91
2023-05-21T08:07:49.627Z,21.01
2023-05-21T08:10:19.388Z,21.11
2023-05-21T08:12:47.594Z,21.23
2023-05-21T08:15:15.577Z,21.37
2023-05-21T08:17:43.844Z,21.53
2023-05-21T08:20:14.485Z,21.69
2023-05-21T08:22:43.806Z,21.85
2023-05-21T08:25:11.797Z,22.00
2023-05-21T08:27:39.720Z,22.13
2023-05-21T08:30:11.555Z,22.26
2023-05-21T08:32:42.019Z,22.39
2023-05-21T08:35:10.194Z,22.53
2023-05-21T08:37:38.299Z,22.67
2023-05-21T08:40:06.741Z,22.76
2023-05-21T08:42:47.266Z,22.83
2023-05-21T08:45:20.823Z,22.90
2023-05-21T08:47:57.067Z,22.96
2023-05-21T08:50:27.879Z,23.08
2023-05-21T08:52:55.719Z,23.17
2023-05-21T08:55:24.041Z,23.27
2023-05-21T08:57:57.602Z,23.34
2023-05-21T09:00:28.680Z,23.44
2023-05-21T09:02:57.420Z,23.52
2023-05-21T09:05:27.114Z,23.63
2023-05-21T09:08:13.853Z,23.70
2023-05-21T09:10:49.149Z,23.75
2023-05-21T09:13:18.725Z,23.81
2023-05-21T09:15:47.170Z,23.91
2023-05-21T09:18:18.395Z,24.01
2023-05-21T09:20:46.380Z,24.09
2023-05-21T09:23:19.861Z,24.14
2023-05-21T09:25:49.140Z,24.20
2023-05-21T09:28:18.412Z,24.27
2023-05-21T09:30:54.649Z,24.29
2023-05-21T09:33:26.832Z,24.30
2023-05-21T09:35:55.360Z,24.34
2023-05-21T09:38:24.061Z,24.44
2023-05-21T09:40:55.825Z,24.54
2023-05-21T09:43:23.830Z,24.67
2023-05-21T09:45:56.914Z,24.80
2023-05-21T09:48:43.783Z,24.93
2023-05-21T09:51:13.424Z,25.01
2023-05-21T09:53:55.764Z,25.08
2023-05-21T09:56:25.482Z,25.16
2023-05-21T09:59:02.821Z,25.25
2023-05-21T10:01:32.230Z,25.35
2023-05-21T10:04:02.386Z,25.42
2023-05-21T10:06:34.997Z,25.52
2023-05-21T10:09:11.613Z,25.64
2023-05-21T10:11:44.048Z,25.79
2023-05-21T10:14:17.326Z,25.93
2023-05-21T10:16:47.695Z,26.11
2023-05-21T10:19:20.199Z,26.28
2023-05-21T10:21:50.410Z,26.48
2023-05-21T10:24:21.399Z,26.67
2023-05-21T10:26:50.947Z,26.86
2023-05-21T10:29:20.793Z,27.05
2023-05-21T10:31:51.361Z,27.23
2023-05-21T10:34:21.436Z,27.38
2023-05-21T10:36:50.494Z,27.55
2023-05-21T10:39:20.839Z,27.74
2023-05-21T10:42:16.136Z,27.90
2023-05-21T10:45:08.589Z,28.05
2023-05-21T10:47:58.842Z,28.19
2023-05-21T10:50:29.405Z,28.35
2023-05-21T10:53:17.024Z,28.47
2023-05-21T10:56:03.602Z,28.61
2023-05-21T10:58:40.805Z,28.71
2023-05-21T11:01:09.636Z,28.78
2023-05-21T11:03:38.192Z,28.83
2023-05-21T11:06:06.616Z,28.83
2023-05-21T11:08:38.986Z,28.83
2023-05-21T11:11:07.024Z,28.88
2023-05-21T11:13:51.479Z,28.92
2023-05-21T11:16:21.774Z,29.03
2023-05-21T11:18:49.986Z,29.17
2023-05-21T11:21:21.274Z,29.31
2023-05-21T11:23:58.801Z,29.37
2023-05-21T11:26:28.560Z,29.43
2023-05-21T11:29:05.356Z,29.38
2023-05-21T11:31:38.747Z,29.34
2023-05-21T11:34:21.893Z,29.38
2023-05-21T11:36:50.213Z,29.40
2023-05-21T11:39:23.963Z,29.42
2023-05-21T11:42:04.440Z,29.45
2023-05-21T11:44:47.855Z,29.42
2023-05-21T11:47:18.216Z,29.43
2023-05-21T11:49:46.905Z,29.45
2023-05-21T11:52:14.962Z,29.46
2023-05-21T11:54:50.626Z,29.39
2023-05-21T11:57:19.594Z,29.15
2023-05-21T11:59:51.673Z,28.88
2023-05-21T12:02:21.932Z,28.62
2023-05-21T12:04:51.534Z,28.37
2023-05-21T12:07:20.485Z,28.10
2023-05-21T12:09:50.539Z,27.83
2023-05-21T12:12:21.544Z,27.57
2023-05-21T12:14:51.392Z,27.32
2023-05-21T12:17:24.006Z,27.13
2023-05-21T12:19:53.964Z,26.98
2023-05-21T12:22:23.564Z,26.82
2023-05-21T12:24:53.731Z,26.69
2023-05-21T12:27:22.894Z,26.64
2023-05-21T12:29:52.232Z,26.64
2023-05-21T12:32:21.535Z,26.65
2023-05-21T12:34:52.637Z,26.67
2023-05-21T12:37:22.683Z,26.66
2023-05-21T12:39:52.443Z,26.60
2023-05-21T12:42:27.267Z,26.56
2023-05-21T12:44:55.772Z,26.47
2023-05-21T12:47:26.698Z,26.34
2023-05-21T12:49:58.156Z,26.21
2023-05-21T12:52:29.530Z,26.06
2023-05-21T12:54:58.646Z,25.90
2023-05-21T12:57:28.616Z,25.74
2023-05-21T12:59:58.264Z,25.61
2023-05-21T13:02:47.892Z,25.54
2023-05-21T13:05:18.248Z,25.52
2023-05-21T13:07:47.659Z,25.54
2023-05-21T13:10:18.907Z,25.56
2023-05-21T13:12:47.415Z,25.61
2023-05-21T13:15:15.737Z,25.64
2023-05-21T13:17:43.984Z,25.65
2023-05-21T13:20:15.378Z,25.65
2023-05-21T13:22:48.053Z,25.68
2023-05-21T13:25:29.931Z,25.71
2023-05-21T13:28:01.246Z,25.75
2023-05-21T13:30:29.256Z,25.79
2023-05-21T13:32:57.494Z,25.83
2023-05-21T13:35:27.629Z,25.86
2023-05-21T13:37:56.239Z,25.86
2023-05-21T13:40:24.141Z,25.85
2023-05-21T13:42:52.012Z,25.85
2023-05-21T13:45:21.357Z,25.87
2023-05-21T13:47:49.410Z,25.89
2023-05-21T13:50:17.458Z,25.91
2023-05-21T13:52:46.165Z,25.94
2023-05-21T13:55:16.202Z,25.98
2023-05-21T13:57:44.583Z,26.02
2023-05-21T14:00:15.590Z,26.11
2023-05-21T14:02:44.855Z,26.19
2023-05-21T14:05:14.012Z,26.26
2023-05-21T14:07:42.172Z,26.30
2023-05-21T14:10:11.296Z,26.30
2023-05-21T14:12:40.625Z,26.28
2023-05-21T14:15:09.413Z,26.25
2023-05-21T14:17:40.638Z,26.20
2023-05-21T14:20:09.611Z,26.15
2023-05-21T14:22:38.047Z,26.11
2023-05-21T14:25:06.330Z,26.08
2023-05-21T14:27:34.257Z,26.06
2023-05-21T14:30:02.411Z,26.04
2023-05-21T14:32:30.784Z,26.01
2023-05-21T14:34:59.496Z,25.99
2023-05-21T14:37:27.402Z,25.99
2023-05-21T14:39:55.297Z,26.01
2023-05-21T14:42:23.480Z,26.05
2023-05-21T14:44:52.367Z,26.08
2023-05-21T14:47:21.029Z,26.14
2023-05-21T14:49:51.394Z,26.16
2023-05-21T14:52:19.563Z,26.10
2023-05-21T14:54:47.302Z,26.07
2023-05-21T14:57:15.305Z,26.09
2023-05-21T14:59:43.313Z,26.13
2023-05-21T15:02:11.307Z,26.18
2023-05-21T15:04:39.296Z,26.25
2023-05-21T15:07:07.262Z,26.29
2023-05-21T15:09:35.247Z,26.25
2023-05-21T15:12:03.242Z,26.11
2023-05-21T15:14:31.096Z,25.62
2023-05-21T15:16:58.991Z,25.01
2023-05-21T15:19:26.890Z,24.40
2023-05-21T15:21:54.985Z,23.84
2023-05-21T15:24:22.982Z,23.19
2023-05-21T15:26:52.698Z,22.61
2023-05-21T15:29:20.892Z,22.12
2023-05-21T15:31:48.872Z,21.68
2023-05-21T15:34:18.049Z,21.34
2023-05-21T15:36:46.197Z,21.04
2023-05-21T15:39:14.096Z,20.78
2023-05-21T15:41:42.132Z,20.58
2023-05-21T15:44:09.975Z,20.44
2023-05-21T15:46:37.850Z,20.33
2023-05-21T15:49:06.021Z,20.25
2023-05-21T15:51:34.011Z,20.21
2023-05-21T15:54:02.011Z,20.20
2023-05-21T15:56:30.026Z,20.22
2023-05-21T15:59:01.288Z,20.25
2023-05-21T16:01:29.555Z,20.28
2023-05-21T16:03:57.527Z,20.29
2023-05-21T16:06:25.939Z,20.26
2023-05-21T16:08:53.864Z,20.21
2023-05-21T16:11:22.417Z,20.17
2023-05-21T16:13:50.439Z,20.18
2023-05-21T16:16:18.472Z,20.20
2023-05-21T16:18:46.637Z,20.20
2023-05-21T16:21:15.086Z,20.17
2023-05-21T16:23:46.013Z,20.08
2023-05-21T16:26:13.972Z,20.00
2023-05-21T16:28:42.240Z,19.96
2023-05-21T16:31:11.436Z,19.98
2023-05-21T16:33:39.608Z,20.01
2023-05-21T16:36:07.662Z,20.04
2023-05-21T16:38:35.899Z,20.07
2023-05-21T16:41:03.794Z,20.10
2023-05-21T16:43:31.853Z,20.16
2023-05-21T16:45:59.988Z,20.24
2023-05-21T16:48:27.811Z,20.32
2023-05-21T16:50:55.794Z,20.37
2023-05-21T16:53:23.848Z,20.40
2023-05-21T16:55:51.763Z,20.44
2023-05-21T16:58:19.870Z,20.50
2023-05-21T17:00:48.071Z,20.54
2023-05-21T17:03:16.509Z,20.52
2023-05-21T17:05:44.430Z,20.48
2023-05-21T17:08:12.498Z,20.47
2023-05-21T17:10:41.103Z,20.46
2023-05-21T17:13:21.735Z,20.45
2023-05-21T17:15:51.430Z,20.43
2023-05-21T17:18:19.708Z,20.36
2023-05-21T17:20:47.598Z,20.29
2023-05-21T17:23:15.712Z,20.24
2023-05-21T17:25:43.901Z,20.22
2023-05-21T17:28:11.725Z,20.20
2023-05-21T17:30:39.660Z,20.14
2023-05-21T17:33:07.762Z,20.04
2023-05-21T17:35:36.037Z,19.96
2023-05-21T17:38:04.241Z,19.88
2023-05-21T17:40:32.087Z,19.79
2023-05-21T17:42:59.998Z,19.69
2023-05-21T17:45:27.802Z,19.60
2023-05-21T17:47:59.640Z,19.54
2023-05-21T17:50:28.351Z,19.49
2023-05-21T17:52:56.439Z,19.43
2023-05-21T17:55:24.347Z,19.37
2023-05-21T17:57:52.559Z,19.32
2023-05-21T18:00:20.747Z,19.24
2023-05-21T18:02:48.756Z,19.11
2023-05-21T18:05:17.335Z,18.96
2023-05-21T18:07:45.534Z,18.82
2023-05-21T18:10:15.345Z,18.73
2023-05-21T18:12:46.216Z,18.68
2023-05-21T18:15:15.297Z,18.64
2023-05-21T18:17:43.205Z,18.58
2023-05-21T18:20:12.015Z,18.47
2023-05-21T18:22:40.363Z,18.34
2023-05-21T18:25:09.236Z,18.22
2023-05-21T18:27:37.220Z,18.12
2023-05-21T18:30:06.960Z,18.05
2023-05-21T18:32:38.532Z,18.00
2023-05-21T18:35:11.398Z,17.96
2023-05-21T18:37:42.158Z,17.92
2023-05-21T18:40:11.954Z,17.88
2023-05-21T18:42:40.236Z,17.84
2023-05-21T18:45:09.232Z,17.82
2023-05-21T18:47:39.435Z,17.83
2023-05-21T18:50:13.480Z,17.84
2023-05-21T18:52:41.938Z,17.84
2023-05-21T18:55:10.374Z,17.83
2023-05-21T18:57:38.326Z,17.81
2023-05-21T19:00:09.612Z,17.79
2023-05-21T19:02:37.777Z,17.75
2023-05-21T19:05:07.159Z,17.69
2023-05-21T19:07:36.262Z,17.63
2023-05-21T19:10:05.118Z,17.57
2023-05-21T19:12:34.086Z,17.50
2023-05-21T19:15:02.807Z,17.42
2023-05-21T19:17:30.829Z,17.33
2023-05-21T19:19:58.902Z,17.28
2023-05-21T19:22:28.193Z,17.27
2023-05-21T19:24:56.023Z,17.27
2023-05-21T19:27:24.163Z,17.26
2023-05-21T19:29:52.746Z,17.22
2023-05-21T19:32:23.614Z,17.18
2023-05-21T19:34:52.288Z,17.16
2023-05-21T19:37:20.224Z,17.15
2023-05-21T19:39:50.453Z,17.14
2023-05-21T19:42:21.411Z,17.12
2023-05-21T19:44:49.587Z,17.07
2023-05-21T19:47:17.598Z,17.05
2023-05-21T19:49:45.793Z,17.03
2023-05-21T19:52:14.029Z,17.03
2023-05-21T19:54:41.902Z,17.04
2023-05-21T19:57:12.364Z,17.02
2023-05-21T19:59:40.922Z,16.99
2023-05-21T20:02:13.328Z,16.97
2023-05-21T20:04:41.162Z,16.95
2023-05-21T20:07:10.876Z,16.95
2023-05-21T20:09:39.567Z,16.96
2023-05-21T20:12:08.454Z,16.95
2023-05-21T20:14:36.287Z,16.90
2023-05-21T20:17:07.495Z,16.85
2023-05-21T20:19:35.939Z,16.81
2023-05-21T20:22:04.890Z,16.76
2023-05-21T20:24:32.792Z,16.72
2023-05-21T20:27:01.657Z,16.70
2023-05-21T20:29:29.948Z,16.66
2023-05-21T20:31:58.190Z,16.60
2023-05-21T20:34:27.515Z,16.55
2023-05-21T20:36:58.818Z,16.53
2023-05-21T20:39:29.925Z,16.52
2023-05-21T20:41:58.445Z,16.51
2023-05-21T20:44:27.676Z,16.49
2023-05-21T20:46:55.571Z,16.44
2023-05-21T20:49:24.849Z,16.38
2023-05-21T20:51:53.022Z,16.34
2023-05-21T20:54:22.487Z,16.32
2023-05-21T20:56:50.904Z,16.31
2023-05-21T20:59:18.881Z,16.26
2023-05-21T21:01:46.850Z,16.18
2023-05-21T21:04:14.729Z,16.12
2023-05-21T21:06:43.011Z,16.08
2023-05-21T21:09:11.001Z,16.06
2023-05-21T21:11:39.000Z,16.05
2023-05-21T21:14:09.327Z,16.04
2023-05-21T21:16:37.123Z,16.04
2023-05-21T21:19:05.108Z,16.03
2023-05-21T21:21:33.360Z,16.00
2023-05-21T21:24:01.274Z,15.97
2023-05-21T21:26:29.132Z,15.95
2023-05-21T21:28:57.070Z,15.93
2023-05-21T21:31:25.243Z,15.89
2023-05-21T21:33:53.557Z,15.85
2023-05-21T21:36:21.545Z,15.77
2023-05-21T21:38:49.338Z,15.69
2023-05-21T21:41:17.245Z,15.61
2023-05-21T21:43:45.468Z,15.57
2023-05-21T21:46:13.502Z,15.54
2023-05-21T21:48:41.527Z,15.54
2023-05-21T21:51:09.655Z,15.51
2023-05-21T21:53:37.693Z,15.49
2023-05-21T21:56:05.849Z,15.47
2023-05-21T21:58:33.811Z,15.45
2023-05-21T22:01:01.938Z,15.42
2023-05-21T22:03:32.305Z,15.39
2023-05-21T22:06:00.674Z,15.35
2023-05-21T22:08:28.875Z,15.32
2023-05-21T22:10:58.192Z,15.30
2023-05-21T22:13:29.201Z,15.27
2023-05-21T22:15:58.123Z,15.26
2023-05-21T22:18:39.613Z,15.23
2023-05-21T22:21:10.636Z,15.19
2023-05-21T22:23:39.884Z,15.16
2023-05-21T22:26:07.791Z,15.12
2023-05-21T22:28:35.999Z,15.08
2023-05-21T22:31:04.016Z,15.05
2023-05-21T22:33:34.981Z,15.00
2023-05-21T22:36:03.021Z,14.97
2023-05-21T22:38:31.137Z,14.94
2023-05-21T22:40:59.100Z,14.93
2023-05-21T22:43:27.452Z,14.93
2023-05-21T22:45:55.432Z,14.92
2023-05-21T22:48:23.474Z,14.91
2023-05-21T22:50:53.621Z,14.90
2023-05-21T22:53:21.808Z,14.86
2023-05-21T22:55:50.416Z,14.81
2023-05-21T22:58:18.859Z,14.78
2023-05-21T23:00:48.031Z,14.75
2023-05-21T23:03:16.941Z,14.72
2023-05-21T23:05:45.671Z,14.71
2023-05-21T23:08:14.141Z,14.71
2023-05-21T23:10:42.085Z,14.68
2023-05-21T23:13:10.304Z,14.67
2023-05-21T23:15:39.065Z,14.67
2023-05-21T23:18:08.736Z,14.67
2023-05-21T23:20:37.461Z,14.69
2023-05-21T23:23:06.156Z,14.73
2023-05-21T23:25:35.056Z,14.78
2023-05-21T23:28:04.018Z,14.81
2023-05-21T23:30:31.851Z,14.81
2023-05-21T23:32:59.893Z,14.79
2023-05-21T23:35:27.977Z,14.77
2023-05-21T23:37:56.008Z,14.73
2023-05-21T23:40:23.884Z,14.70
2023-05-21T23:42:51.829Z,14.69
2023-05-21T23:45:19.866Z,14.71
2023-05-21T23:47:47.739Z,14.71
2023-05-21T23:50:15.944Z,14.72
2023-05-21T23:52:44.235Z,14.69
2023-05-21T23:55:14.615Z,14.61
2023-05-21T23:57:42.514Z,14.54
